Time;durP1;ratioP1;P1;durP2;ratioP2;P2;SDS_P1;SDS_P2;PMS_P1;PMS_P2;Temp;Humidity;BMP_temperature;BMP_pressure;BME280_temperature;BME280_humidity;BME280_pressure;Samples;Min_cycle;Max_cycle;Signal;HPM_P1;HPM_P2
2021/07/07 00:00:17;;;;;;;2.88;1.60;;;15.70;99.90;;;;;;5059389;28;20009;-88
2021/07/07 00:02:43;;;;;;;4.78;1.42;;;15.70;99.90;;;;;;5059479;28;20033;-87
2021/07/07 00:05:10;;;;;;;3.85;1.10;;;15.70;99.90;;;;;;5059164;28;20025;-88
2021/07/07 00:07:36;;;;;;;1.83;1.15;;;15.70;99.90;;;;;;5059546;28;20033;-87
2021/07/07 00:10:05;;;;;;;2.33;1.10;;;15.70;99.90;;;;;;5059315;28;20100;-87
2021/07/07 00:12:31;;;;;;;2.22;1.10;;;15.70;99.90;;;;;;5058515;28;20008;-88
2021/07/07 00:14:56;;;;;;;2.22;1.20;;;15.70;99.90;;;;;;5057629;28;20017;-88
2021/07/07 00:17:22;;;;;;;2.47;1.23;;;15.60;99.90;;;;;;5057707;28;20021;-89
2021/07/07 00:19:48;;;;;;;4.40;1.85;;;15.60;99.90;;;;;;5057589;28;20040;-89
2021/07/07 00:22:14;;;;;;;3.78;1.20;;;15.50;99.90;;;;;;5057409;28;20039;-88
2021/07/07 00:24:40;;;;;;;4.50;1.25;;;15.50;99.90;;;;;;5058028;28;20389;-89
2021/07/07 00:27:06;;;;;;;2.42;1.10;;;15.50;99.90;;;;;;5057321;28;20021;-88
2021/07/07 00:29:32;;;;;;;2.38;0.90;;;15.40;99.90;;;;;;5039946;28;20514;-88
2021/07/07 00:31:58;;;;;;;4.50;1.17;;;15.40;99.90;;;;;;5034991;28;20031;-87
2021/07/07 00:34:23;;;;;;;3.53;1.17;;;15.40;99.90;;;;;;5034731;28;20109;-88
2021/07/07 00:36:49;;;;;;;2.67;1.13;;;15.40;99.90;;;;;;5034715;28;20387;-87
2021/07/07 00:39:14;;;;;;;2.42;1.38;;;15.30;99.90;;;;;;5035926;28;20026;-87
2021/07/07 00:41:40;;;;;;;3.65;1.52;;;15.30;99.90;;;;;;5035750;28;20032;-87
2021/07/07 00:44:06;;;;;;;4.72;1.40;;;15.30;99.90;;;;;;5034717;28;20028;-86
2021/07/07 00:46:31;;;;;;;2.67;1.13;;;15.30;99.90;;;;;;5017681;28;20163;-87
2021/07/07 00:48:57;;;;;;;2.15;1.30;;;15.20;99.90;;;;;;5034228;28;20018;-87
2021/07/07 00:51:23;;;;;;;3.83;1.60;;;15.20;99.90;;;;;;5017911;28;20032;-87
2021/07/07 00:53:50;;;;;;;5.20;1.45;;;15.10;99.90;;;;;;5035241;28;20026;-87
2021/07/07 00:56:18;;;;;;;3.28;1.30;;;15.10;99.90;;;;;;5017083;28;20072;-87
2021/07/07 00:58:46;;;;;;;5.88;1.40;;;15.10;99.90;;;;;;5017866;28;20523;-88
2021/07/07 01:01:12;;;;;;;5.90;1.77;;;15.10;99.90;;;;;;5017070;28;20391;-88
2021/07/07 01:03:38;;;;;;;2.25;1.17;;;15.10;99.90;;;;;;5016737;28;20467;-87
2021/07/07 01:06:03;;;;;;;3.35;1.40;;;15.00;99.90;;;;;;5016719;28;20040;-87
2021/07/07 01:08:29;;;;;;;3.00;1.30;;;15.00;99.90;;;;;;5034681;28;20018;-87
2021/07/07 01:10:56;;;;;;;3.08;1.63;;;15.00;99.90;;;;;;5034283;28;20028;-88
2021/07/07 01:13:22;;;;;;;5.68;1.55;;;15.00;99.90;;;;;;5016887;28;20013;-88
2021/07/07 01:15:49;;;;;;;2.25;1.20;;;15.00;99.90;;;;;;5016896;28;20075;-87
2021/07/07 01:18:15;;;;;;;2.20;1.20;;;14.90;99.90;;;;;;5016792;28;20024;-87
2021/07/07 01:20:40;;;;;;;2.78;1.50;;;14.90;99.90;;;;;;5034315;28;20029;-88
2021/07/07 01:23:06;;;;;;;2.25;1.10;;;14.90;99.90;;;;;;5017204;28;20022;-88
2021/07/07 01:25:33;;;;;;;2.88;1.02;;;14.90;99.90;;;;;;5016700;28;20625;-88
2021/07/07 01:28:02;;;;;;;2.00;1.13;;;14.90;99.90;;;;;;5016886;28;20044;-86
2021/07/07 01:30:28;;;;;;;2.58;1.35;;;14.90;99.90;;;;;;5016206;28;20116;-89
2021/07/07 01:32:54;;;;;;;2.75;1.17;;;14.80;99.90;;;;;;5016518;28;20049;-88
2021/07/07 01:35:21;;;;;;;2.20;1.17;;;14.80;99.90;;;;;;5016337;28;20450;-88
2021/07/07 01:37:47;;;;;;;4.20;1.20;;;14.80;99.90;;;;;;5016464;28;20021;-87
2021/07/07 01:40:15;;;;;;;1.35;0.90;;;14.80;99.90;;;;;;5016367;28;20036;-88
2021/07/07 01:42:42;;;;;;;1.85;1.15;;;14.70;99.90;;;;;;5016073;28;20379;-88
2021/07/07 01:45:09;;;;;;;2.70;1.30;;;14.70;99.90;;;;;;5016633;28;20036;-87
2021/07/07 01:47:35;;;;;;;3.13;1.05;;;14.60;99.90;;;;;;5033903;28;20486;-89
2021/07/07 01:50:01;;;;;;;2.28;1.15;;;14.60;99.90;;;;;;5016701;28;20021;-88
2021/07/07 01:52:27;;;;;;;2.55;1.25;;;14.50;99.90;;;;;;5016470;28;20037;-89
2021/07/07 01:54:52;;;;;;;2.70;1.30;;;14.50;99.90;;;;;;5016464;28;20025;-87
2021/07/07 01:57:18;;;;;;;1.80;1.00;;;14.50;99.90;;;;;;5016072;28;20075;-88
2021/07/07 01:59:44;;;;;;;2.20;1.10;;;14.50;99.90;;;;;;5016572;28;20022;-88
2021/07/07 02:02:09;;;;;;;2.28;1.20;;;14.40;99.90;;;;;;5016848;28;20025;-88
2021/07/07 02:04:35;;;;;;;4.90;1.77;;;14.30;99.90;;;;;;5015663;28;20045;-88
2021/07/07 02:07:02;;;;;;;2.63;0.90;;;14.30;99.90;;;;;;5033540;28;20430;-89
2021/07/07 02:09:27;;;;;;;3.13;1.20;;;14.30;99.90;;;;;;5015722;28;20463;-87
2021/07/07 02:11:53;;;;;;;1.95;0.90;;;14.20;99.90;;;;;;5016536;28;20032;-88
2021/07/07 02:14:19;;;;;;;3.05;1.15;;;14.20;99.90;;;;;;5015950;28;20121;-88
2021/07/07 02:16:46;;;;;;;5.15;1.05;;;14.20;99.90;;;;;;5015860;28;20475;-88
2021/07/07 02:19:15;;;;;;;1.80;1.05;;;14.10;99.90;;;;;;5016213;28;20029;-89
2021/07/07 02:21:41;;;;;;;3.50;1.15;;;14.10;99.90;;;;;;5016120;28;20493;-88
2021/07/07 02:24:07;;;;;;;1.60;1.00;;;14.10;99.90;;;;;;5015496;28;20115;-88
2021/07/07 02:26:33;;;;;;;2.72;1.10;;;14.10;99.90;;;;;;5015237;28;20677;-87
2021/07/07 02:28:58;;;;;;;1.25;0.80;;;14.00;99.90;;;;;;5014223;28;20025;-87
2021/07/07 02:31:24;;;;;;;2.22;1.10;;;14.00;99.90;;;;;;5015405;28;20030;-88
2021/07/07 02:33:50;;;;;;;1.75;1.10;;;14.00;99.90;;;;;;5015579;28;20407;-87
2021/07/07 02:36:16;;;;;;;3.22;1.30;;;14.00;99.90;;;;;;5015720;28;20028;-88
2021/07/07 02:38:41;;;;;;;1.45;1.00;;;13.90;99.90;;;;;;5015977;28;20383;-86
2021/07/07 02:41:07;;;;;;;2.10;0.88;;;13.90;99.90;;;;;;5015950;28;20021;-87
2021/07/07 02:43:33;;;;;;;3.50;1.10;;;13.90;99.90;;;;;;5015426;28;20052;-86
2021/07/07 02:45:59;;;;;;;3.55;1.10;;;13.90;99.90;;;;;;5033285;28;20034;-87
2021/07/07 02:48:25;;;;;;;1.67;1.20;;;13.90;99.90;;;;;;5015592;28;20024;-87
2021/07/07 02:50:50;;;;;;;1.80;1.00;;;13.90;99.90;;;;;;5016050;28;20029;-87
2021/07/07 02:53:18;;;;;;;2.78;1.20;;;13.80;99.90;;;;;;5017420;28;20080;-86
2021/07/07 02:55:44;;;;;;;2.58;1.30;;;13.90;99.90;;;;;;5015638;28;20061;-87
2021/07/07 02:58:10;;;;;;;1.50;1.10;;;13.90;99.90;;;;;;5016321;28;20018;-89
2021/07/07 03:00:46;;;;;;;2.47;1.40;;;13.90;99.90;;;;;;5015505;28;20069;-89
2021/07/07 03:03:24;;;;;;;1.98;1.27;;;13.90;99.90;;;;;;5015779;28;20054;-88
2021/07/07 03:05:57;;;;;;;3.08;1.27;;;13.80;99.90;;;;;;5016417;28;20054;-88
2021/07/07 03:08:25;;;;;;;2.90;1.30;;;13.80;99.90;;;;;;5016755;28;20034;-88
2021/07/07 03:10:52;;;;;;;1.58;1.35;;;13.80;99.90;;;;;;5015138;28;20026;-87
2021/07/07 03:13:20;;;;;;;2.63;1.60;;;13.90;99.90;;;;;;5015191;28;20072;-87
2021/07/07 03:15:46;;;;;;;3.35;1.70;;;14.00;99.90;;;;;;5016202;28;20060;-87
2021/07/07 03:18:13;;;;;;;2.90;1.45;;;14.00;99.90;;;;;;5014711;28;20029;-88
2021/07/07 03:20:41;;;;;;;2.42;1.60;;;14.00;99.90;;;;;;5014927;28;20025;-87
2021/07/07 03:23:08;;;;;;;3.38;1.67;;;14.00;99.90;;;;;;5015022;28;20022;-87
2021/07/07 03:25:34;;;;;;;3.97;1.80;;;14.00;99.90;;;;;;5016220;28;20042;-88
2021/07/07 03:28:00;;;;;;;3.22;1.48;;;13.90;99.90;;;;;;5015082;28;20460;-88
2021/07/07 03:30:26;;;;;;;3.45;1.75;;;13.90;99.90;;;;;;5015275;28;20117;-87
2021/07/07 03:32:57;;;;;;;2.10;1.60;;;13.90;99.90;;;;;;5014881;28;20018;-87
2021/07/07 03:35:23;;;;;;;4.45;1.80;;;14.00;99.90;;;;;;5014886;28;20030;-87
2021/07/07 03:37:50;;;;;;;4.05;1.92;;;14.00;99.90;;;;;;5014769;28;20049;-88
2021/07/07 03:40:17;;;;;;;3.97;1.60;;;14.10;99.90;;;;;;5014528;28;20480;-87
2021/07/07 03:42:43;;;;;;;2.50;1.60;;;14.10;99.90;;;;;;5014459;28;20018;-88
2021/07/07 03:45:11;;;;;;;2.80;1.88;;;14.20;99.90;;;;;;5014931;28;20033;-88
2021/07/07 03:47:37;;;;;;;2.28;1.65;;;14.20;99.90;;;;;;5015885;28;20465;-87
2021/07/07 03:50:04;;;;;;;2.45;1.60;;;14.30;99.90;;;;;;5014600;28;20029;-88
2021/07/07 03:52:30;;;;;;;2.38;1.70;;;14.30;99.90;;;;;;5015119;28;20089;-87
2021/07/07 03:54:56;;;;;;;2.38;1.70;;;14.30;99.90;;;;;;5014259;28;20022;-87
2021/07/07 03:57:21;;;;;;;2.40;1.60;;;14.40;99.90;;;;;;5013745;28;20120;-87
2021/07/07 03:59:47;;;;;;;3.72;1.98;;;14.30;99.90;;;;;;5013846;28;20022;-88
2021/07/07 04:02:13;;;;;;;2.08;1.65;;;14.40;99.90;;;;;;5013970;28;20025;-88
2021/07/07 04:04:40;;;;;;;3.60;1.90;;;14.30;99.90;;;;;;5015571;28;20033;-88
2021/07/07 04:07:05;;;;;;;2.65;1.77;;;14.30;99.90;;;;;;5013777;28;20096;-87
2021/07/07 04:09:31;;;;;;;3.17;1.88;;;14.30;99.90;;;;;;5013713;28;20112;-88
2021/07/07 04:11:58;;;;;;;2.88;1.80;;;14.30;99.90;;;;;;5015195;28;20137;-87
2021/07/07 04:14:24;;;;;;;2.63;1.58;;;14.30;99.90;;;;;;5013963;28;20046;-88
2021/07/07 04:16:52;;;;;;;3.50;2.00;;;14.30;99.90;;;;;;5013594;28;20029;-87
2021/07/07 04:19:18;;;;;;;2.30;1.67;;;14.30;99.90;;;;;;5014716;28;20472;-87
2021/07/07 04:21:43;;;;;;;3.80;2.08;;;14.30;99.90;;;;;;5013717;28;20028;-87
2021/07/07 04:24:09;;;;;;;3.28;1.77;;;14.40;99.90;;;;;;5013925;28;20076;-87
2021/07/07 04:26:35;;;;;;;4.05;1.80;;;14.40;99.90;;;;;;5013153;28;20121;-87
2021/07/07 04:29:00;;;;;;;3.42;1.73;;;14.40;99.90;;;;;;5013367;28;20057;-88
2021/07/07 04:31:27;;;;;;;3.67;1.83;;;14.40;99.90;;;;;;5013547;28;20025;-87
2021/07/07 04:33:53;;;;;;;4.28;1.98;;;14.40;99.90;;;;;;5010655;28;20375;-88
2021/07/07 04:36:18;;;;;;;3.97;2.53;;;14.40;99.90;;;;;;5011503;28;20041;-88
2021/07/07 04:38:44;;;;;;;3.33;2.65;;;14.40;99.90;;;;;;5010513;28;20095;-88
2021/07/07 04:41:09;;;;;;;3.88;2.40;;;14.50;99.90;;;;;;5010123;28;20041;-89
2021/07/07 04:43:35;;;;;;;4.78;2.30;;;14.60;99.90;;;;;;5006821;28;20533;-89
2021/07/07 04:46:01;;;;;;;4.47;2.60;;;14.60;99.90;;;;;;5010489;28;20465;-88
2021/07/07 04:48:26;;;;;;;8.10;2.60;;;14.60;99.90;;;;;;5011594;28;20024;-88
2021/07/07 04:50:52;;;;;;;4.22;2.70;;;14.70;99.90;;;;;;5011726;28;20033;-88
2021/07/07 04:53:17;;;;;;;6.47;2.50;;;14.80;99.90;;;;;;5012863;28;20018;-87
2021/07/07 04:55:43;;;;;;;4.85;2.45;;;14.90;99.90;;;;;;5015399;28;20056;-88
2021/07/07 04:58:09;;;;;;;5.68;2.72;;;15.00;99.90;;;;;;5014562;28;20021;-88
2021/07/07 05:00:35;;;;;;;5.38;3.03;;;15.10;99.90;;;;;;5015217;28;20370;-89
2021/07/07 05:03:00;;;;;;;3.60;2.20;;;15.20;99.90;;;;;;5032310;28;20106;-89
2021/07/07 05:05:26;;;;;;;5.78;2.65;;;15.40;99.90;;;;;;5016031;28;20076;-88
2021/07/07 05:07:52;;;;;;;4.60;2.17;;;15.40;99.90;;;;;;5013934;28;20041;-89
2021/07/07 05:10:18;;;;;;;4.50;2.20;;;15.50;99.90;;;;;;5031853;28;20043;-87
2021/07/07 05:12:44;;;;;;;2.22;1.77;;;15.50;99.90;;;;;;5014972;28;20021;-88
2021/07/07 05:15:12;;;;;;;3.80;2.15;;;15.60;99.90;;;;;;5014473;28;20026;-89
2021/07/07 05:17:38;;;;;;;3.67;2.00;;;15.70;99.90;;;;;;5014624;28;20025;-89
2021/07/07 05:20:05;;;;;;;5.72;1.95;;;15.80;99.90;;;;;;5014038;28;20031;-90
2021/07/07 05:22:30;;;;;;;2.53;1.70;;;15.90;99.90;;;;;;5014733;28;20033;-89
2021/07/07 05:24:56;;;;;;;3.90;2.10;;;15.90;99.90;;;;;;5014763;28;20103;-89
2021/07/07 05:27:22;;;;;;;3.53;1.92;;;16.00;99.90;;;;;;5014889;28;20072;-89
2021/07/07 05:29:47;;;;;;;4.85;2.30;;;16.00;99.90;;;;;;5014963;28;20022;-89
2021/07/07 05:32:20;;;;;;;4.60;2.15;;;16.10;99.90;;;;;;5014201;28;20049;-89
2021/07/07 05:34:45;;;;;;;4.88;2.20;;;16.10;99.90;;;;;;5014755;28;20021;-89
2021/07/07 05:37:23;;;;;;;3.88;2.03;;;16.20;99.90;;;;;;5031713;28;20039;-88
2021/07/07 05:39:50;;;;;;;4.28;2.10;;;16.30;99.90;;;;;;5035021;28;20040;-91
2021/07/07 05:42:18;;;;;;;5.93;2.45;;;16.40;99.90;;;;;;5015844;28;20079;-90
2021/07/07 05:44:44;;;;;;;6.25;2.65;;;16.50;99.90;;;;;;5014944;28;20029;-90
2021/07/07 05:47:10;;;;;;;5.22;2.50;;;16.50;99.90;;;;;;5029973;28;20026;-90
2021/07/07 05:49:35;;;;;;;4.30;2.38;;;16.60;99.90;;;;;;5031785;28;20067;-92
2021/07/07 05:52:01;;;;;;;4.38;2.15;;;16.60;99.90;;;;;;5017811;28;20033;-90
2021/07/07 05:54:27;;;;;;;7.70;2.65;;;16.70;99.90;;;;;;5015222;28;20025;-90
2021/07/07 05:56:52;;;;;;;5.38;2.15;;;16.70;99.90;;;;;;5011128;28;20534;-90
2021/07/07 05:59:18;;;;;;;5.05;2.65;;;16.80;99.90;;;;;;5011646;28;20179;-90
2021/07/07 06:01:43;;;;;;;6.57;3.58;;;16.80;99.90;;;;;;5011618;28;20022;-92
2021/07/07 06:04:09;;;;;;;4.72;2.50;;;16.80;99.90;;;;;;5012646;28;20032;-91
2021/07/07 06:06:35;;;;;;;4.93;2.92;;;16.80;99.90;;;;;;5012842;28;20040;-90
2021/07/07 06:09:00;;;;;;;9.80;3.58;;;16.90;99.90;;;;;;5013140;28;20484;-90
2021/07/07 06:11:27;;;;;;;7.40;3.03;;;16.90;99.90;;;;;;5012723;28;20113;-89
2021/07/07 06:13:53;;;;;;;5.18;2.58;;;16.90;99.90;;;;;;5013742;28;20579;-89
2021/07/07 06:16:18;;;;;;;6.78;2.53;;;17.00;99.90;;;;;;5018773;28;20049;-89
2021/07/07 06:18:44;;;;;;;5.40;2.80;;;17.10;99.90;;;;;;5018304;28;20018;-89
2021/07/07 06:21:10;;;;;;;4.55;2.65;;;17.10;99.90;;;;;;5004524;28;20018;-91
2021/07/07 06:23:35;;;;;;;7.32;3.33;;;17.20;99.90;;;;;;5012575;28;20041;-90
2021/07/07 06:26:01;;;;;;;7.13;3.65;;;17.20;99.90;;;;;;5013136;28;20049;-90
2021/07/07 06:28:27;;;;;;;7.75;3.67;;;17.20;99.90;;;;;;5014387;28;20100;-91
2021/07/07 06:30:53;;;;;;;8.52;3.80;;;17.30;99.90;;;;;;5015632;28;20344;-89
2021/07/07 06:33:19;;;;;;;7.60;4.15;;;17.30;99.90;;;;;;5015235;28;20018;-90
2021/07/07 06:35:44;;;;;;;8.40;3.85;;;17.30;99.90;;;;;;5015068;28;20033;-89
2021/07/07 06:38:11;;;;;;;12.18;4.55;;;17.40;99.90;;;;;;5015736;28;20388;-87
2021/07/07 06:40:37;;;;;;;9.13;3.67;;;17.50;99.90;;;;;;5015376;28;20026;-87
2021/07/07 06:43:04;;;;;;;8.13;3.65;;;17.50;99.90;;;;;;5015305;28;20021;-88
2021/07/07 06:45:30;;;;;;;10.80;5.05;;;17.60;99.90;;;;;;5015651;28;20068;-88
2021/07/07 06:47:56;;;;;;;9.77;4.38;;;17.70;99.90;;;;;;5014927;28;20133;-89
2021/07/07 06:50:24;;;;;;;6.28;3.70;;;17.70;99.90;;;;;;5015049;28;20068;-89
2021/07/07 06:52:49;;;;;;;8.15;3.90;;;17.70;99.90;;;;;;5016895;28;20022;-87
2021/07/07 06:55:15;;;;;;;7.97;3.58;;;17.80;99.90;;;;;;5014322;28;20596;-89
2021/07/07 06:57:41;;;;;;;8.75;3.72;;;18.00;99.90;;;;;;5013411;28;20050;-91
2021/07/07 07:00:12;;;;;;;8.30;4.22;;;18.00;99.90;;;;;;5014729;28;20045;-91
2021/07/07 07:02:39;;;;;;;9.45;3.85;;;18.10;99.90;;;;;;5015257;28;20037;-87
2021/07/07 07:05:07;;;;;;;8.95;3.67;;;18.20;99.90;;;;;;5016030;28;20539;-88
2021/07/07 07:07:34;;;;;;;12.05;4.13;;;18.30;99.90;;;;;;5014372;28;20030;-88
2021/07/07 07:09:59;;;;;;;10.30;3.58;;;18.50;99.90;;;;;;5014774;28;20026;-88
2021/07/07 07:12:28;;;;;;;11.23;4.15;;;18.50;99.90;;;;;;5014210;28;20048;-89
2021/07/07 07:14:55;;;;;;;5.32;3.17;;;18.60;99.90;;;;;;5015352;28;20036;-88
2021/07/07 07:17:22;;;;;;;5.68;3.30;;;18.60;99.90;;;;;;5013834;28;20029;-89
2021/07/07 07:19:49;;;;;;;6.13;3.00;;;18.70;99.90;;;;;;5014271;28;20131;-90
2021/07/07 07:22:15;;;;;;;5.32;2.95;;;18.80;99.90;;;;;;5014465;28;20029;-90
2021/07/07 07:24:42;;;;;;;7.40;2.97;;;18.80;99.90;;;;;;5015331;28;20022;-89
2021/07/07 07:27:08;;;;;;;5.75;2.70;;;18.90;99.90;;;;;;5014006;28;20109;-89
2021/07/07 07:29:35;;;;;;;6.65;3.17;;;18.90;99.90;;;;;;5013792;28;20588;-89
2021/07/07 07:32:01;;;;;;;4.35;2.60;;;19.00;99.90;;;;;;5014355;28;20022;-87
2021/07/07 07:34:26;;;;;;;6.90;3.15;;;19.00;99.90;;;;;;5008120;28;20025;-88
2021/07/07 07:36:58;;;;;;;8.93;3.53;;;19.10;99.90;;;;;;5007112;28;20024;-88
2021/07/07 07:39:26;;;;;;;7.57;2.95;;;19.10;99.90;;;;;;5013582;28;20034;-90
2021/07/07 07:41:51;;;;;;;6.20;2.70;;;19.10;99.90;;;;;;5013843;28;20037;-90
2021/07/07 07:44:18;;;;;;;6.35;2.95;;;19.20;99.90;;;;;;5013989;28;20034;-88
2021/07/07 07:46:43;;;;;;;5.90;3.00;;;19.30;99.90;;;;;;5014176;28;20045;-90
2021/07/07 07:49:11;;;;;;;9.18;3.25;;;19.30;99.90;;;;;;5008095;28;20022;-88
2021/07/07 07:51:37;;;;;;;5.50;2.75;;;19.40;99.90;;;;;;5011755;28;20113;-90
2021/07/07 07:54:02;;;;;;;4.07;2.40;;;19.40;99.90;;;;;;5013658;28;20121;-88
2021/07/07 07:56:28;;;;;;;6.07;2.80;;;19.50;99.90;;;;;;5006825;28;20046;-88
2021/07/07 07:58:55;;;;;;;5.18;3.08;;;19.40;99.90;;;;;;5011471;28;20026;-89
2021/07/07 08:01:24;;;;;;;8.38;3.03;;;19.50;99.90;;;;;;5010701;28;20036;-90
2021/07/07 08:03:49;;;;;;;4.47;2.40;;;19.40;99.90;;;;;;5011655;28;20021;-89
2021/07/07 08:06:15;;;;;;;6.40;2.38;;;19.30;99.90;;;;;;5012416;28;20038;-87
2021/07/07 08:08:40;;;;;;;6.40;2.38;;;19.30;99.90;;;;;;5012318;28;20029;-88
2021/07/07 08:11:06;;;;;;;9.18;2.83;;;19.30;99.90;;;;;;5012353;28;20547;-89
2021/07/07 08:13:31;;;;;;;6.90;2.90;;;19.30;99.90;;;;;;5012892;28;20483;-90
2021/07/07 08:15:57;;;;;;;5.10;2.30;;;19.40;99.90;;;;;;5014016;28;20578;-89
2021/07/07 08:18:23;;;;;;;11.73;3.40;;;19.50;99.90;;;;;;5013147;28;20034;-90
2021/07/07 08:20:48;;;;;;;7.00;2.95;;;19.60;99.90;;;;;;5012855;28;20030;-89
2021/07/07 08:23:14;;;;;;;7.45;2.50;;;19.60;99.90;;;;;;5014642;28;20029;-88
2021/07/07 08:25:39;;;;;;;4.63;2.00;;;19.70;99.90;;;;;;5013383;28;20034;-88
2021/07/07 08:28:05;;;;;;;6.40;2.30;;;19.80;99.90;;;;;;5012016;28;20044;-88
2021/07/07 08:30:31;;;;;;;6.68;2.70;;;19.90;99.90;;;;;;5012481;28;20057;-88
2021/07/07 08:32:56;;;;;;;7.82;2.45;;;20.00;99.90;;;;;;5011558;28;20033;-88
2021/07/07 08:35:23;;;;;;;7.20;2.33;;;20.00;99.90;;;;;;5012128;28;20026;-89
2021/07/07 08:37:49;;;;;;;7.30;2.35;;;20.10;99.90;;;;;;5012903;28;20053;-89
2021/07/07 08:40:16;;;;;;;3.85;2.00;;;20.10;99.90;;;;;;5012512;28;20057;-89
2021/07/07 08:42:44;;;;;;;6.03;2.22;;;20.20;99.90;;;;;;5011951;28;20092;-90
2021/07/07 08:45:12;;;;;;;6.13;2.55;;;20.30;99.90;;;;;;5012346;28;20108;-89
2021/07/07 08:47:41;;;;;;;4.85;2.20;;;20.40;99.90;;;;;;5012387;28;20017;-90
2021/07/07 08:50:09;;;;;;;4.10;1.80;;;20.50;99.90;;;;;;5011458;28;20017;-87
2021/07/07 08:52:37;;;;;;;5.05;2.05;;;20.60;99.90;;;;;;5011534;28;20033;-88
2021/07/07 08:55:03;;;;;;;6.45;2.20;;;20.70;99.90;;;;;;5013436;28;20025;-88
2021/07/07 08:57:29;;;;;;;5.18;2.28;;;20.80;99.90;;;;;;4995825;28;20377;-89
2021/07/07 08:59:55;;;;;;;4.43;1.90;;;20.90;99.90;;;;;;5012137;28;20033;-89
2021/07/07 09:02:20;;;;;;;4.72;2.13;;;21.00;99.90;;;;;;5011865;28;20154;-90
2021/07/07 09:04:46;;;;;;;5.30;1.73;;;21.20;99.90;;;;;;5011694;28;20480;-90
2021/07/07 09:07:18;;;;;;;2.65;1.50;;;21.30;99.90;;;;;;5012761;28;20048;-91
2021/07/07 09:09:48;;;;;;;4.32;1.75;;;21.30;99.90;;;;;;5011399;28;20062;-88
2021/07/07 09:12:28;;;;;;;6.75;2.33;;;21.30;99.90;;;;;;5012781;28;20060;-90
2021/07/07 09:15:02;;;;;;;5.35;1.83;;;21.40;99.90;;;;;;5013034;28;20479;-90
2021/07/07 09:17:42;;;;;;;5.97;1.90;;;21.60;99.90;;;;;;5012366;28;20022;-90
2021/07/07 09:20:25;;;;;;;8.05;1.77;;;21.70;99.90;;;;;;5013209;28;20030;-89
2021/07/07 09:23:12;;;;;;;6.15;1.75;;;21.90;99.90;;;;;;5014645;28;20034;-88
2021/07/07 09:25:57;;;;;;;5.78;1.65;;;22.00;99.90;;;;;;4995240;28;20042;-90
2021/07/07 09:28:36;;;;;;;7.38;1.98;;;22.30;99.90;;;;;;5012717;28;20475;-89
2021/07/07 09:31:26;;;;;;;7.15;1.88;;;22.50;99.90;;;;;;5013146;28;20056;-88
2021/07/07 09:33:52;;;;;;;4.53;1.90;;;22.70;99.90;;;;;;5012041;28;20022;-89
2021/07/07 09:36:24;;;;;;;5.22;1.52;;;22.80;99.90;;;;;;5012309;28;20029;-91
2021/07/07 09:38:52;;;;;;;5.30;1.77;;;23.20;99.90;;;;;;5019789;28;20026;-90
2021/07/07 09:41:19;;;;;;;4.93;1.80;;;23.50;99.90;;;;;;5013752;28;20474;-91
2021/07/07 09:43:55;;;;;;;5.90;1.77;;;23.30;99.90;;;;;;5012491;28;20014;-90
2021/07/07 09:46:23;;;;;;;6.75;2.10;;;23.30;99.90;;;;;;5012279;28;20096;-90
2021/07/07 09:48:51;;;;;;;5.63;1.50;;;23.60;99.90;;;;;;5018260;28;20479;-91
2021/07/07 09:51:17;;;;;;;7.30;1.60;;;23.90;99.90;;;;;;5012488;28;20049;-87
2021/07/07 09:53:43;;;;;;;4.68;1.50;;;23.80;99.90;;;;;;5011150;28;20029;-86
2021/07/07 09:56:09;;;;;;;6.57;1.75;;;23.90;99.90;;;;;;5020462;28;20058;-89
2021/07/07 09:58:34;;;;;;;4.45;1.50;;;24.50;99.90;;;;;;5016655;28;20033;-86
2021/07/07 10:01:00;;;;;;;4.85;1.30;;;24.60;99.90;;;;;;5019051;28;20040;-86
2021/07/07 10:03:30;;;;;;;7.10;1.80;;;24.30;99.90;;;;;;5038997;28;20093;-89
2021/07/07 10:05:57;;;;;;;4.63;1.40;;;24.30;99.90;;;;;;5017509;28;20043;-88
2021/07/07 10:08:23;;;;;;;5.18;1.88;;;24.70;99.90;;;;;;5018306;28;20502;-88
2021/07/07 10:10:50;;;;;;;3.85;1.45;;;25.10;99.90;;;;;;5018604;28;20022;-87
2021/07/07 10:13:16;;;;;;;5.90;1.50;;;25.20;99.90;;;;;;5023821;28;20030;-91
2021/07/07 10:15:41;;;;;;;6.78;1.50;;;25.70;99.20;;;;;;5020869;28;20071;-92
2021/07/07 10:18:08;;;;;;;4.95;1.58;;;26.50;98.30;;;;;;5020702;28;20044;-92
2021/07/07 10:20:35;;;;;;;6.28;1.25;;;26.90;97.80;;;;;;5034736;28;20020;-88
2021/07/07 10:23:02;;;;;;;3.20;1.00;;;27.40;97.50;;;;;;5041103;28;20005;-90
2021/07/07 10:25:30;;;;;;;4.50;1.25;;;27.20;97.30;;;;;;5039520;28;20064;-88
2021/07/07 10:28:00;;;;;;;3.50;1.27;;;26.70;97.40;;;;;;5042191;28;20081;-88
2021/07/07 10:30:59;;;;;;;4.13;1.20;;;26.30;97.60;;;;;;5061146;28;20013;-88
2021/07/07 10:33:28;;;;;;;6.38;1.38;;;25.80;98.10;;;;;;5044043;28;20017;-87
2021/07/07 10:36:14;;;;;;;3.83;1.30;;;25.20;98.10;;;;;;5043732;28;20010;-89
2021/07/07 10:38:47;;;;;;;4.00;1.75;;;24.60;98.70;;;;;;5043536;28;20072;-88
2021/07/07 10:41:13;;;;;;;2.65;1.10;;;24.20;99.00;;;;;;5058405;28;20029;-88
2021/07/07 10:43:46;;;;;;;3.15;1.25;;;24.00;99.50;;;;;;5040068;28;20014;-86
2021/07/07 10:46:13;;;;;;;6.05;1.50;;;23.90;99.70;;;;;;5059955;28;20022;-95
2021/07/07 10:48:40;;;;;;;4.82;1.40;;;23.80;99.90;;;;;;5044081;28;20009;-91
2021/07/07 10:51:12;;;;;;;4.75;1.40;;;23.80;99.90;;;;;;5044856;28;20010;-88
2021/07/07 10:53:37;;;;;;;4.60;1.70;;;23.90;99.90;;;;;;5041201;28;20014;-91
2021/07/07 10:56:05;;;;;;;4.25;1.35;;;24.00;99.90;;;;;;5040819;28;20056;-90
2021/07/07 10:58:36;;;;;;;3.65;1.52;;;24.10;99.90;;;;;;5036680;28;20038;-89
2021/07/07 11:01:04;;;;;;;3.45;1.52;;;24.40;99.70;;;;;;5021089;28;20475;-91
2021/07/07 11:03:38;;;;;;;4.57;1.45;;;24.50;99.40;;;;;;5014488;28;20082;-89
2021/07/07 11:06:37;;;;;;;4.35;1.25;;;24.60;99.30;;;;;;5033604;28;20037;-92
2021/07/07 11:09:16;;;;;;;5.35;1.45;;;24.30;99.30;;;;;;4997317;28;20041;-89
2021/07/07 11:11:47;;;;;;;3.58;1.20;;;24.00;99.80;;;;;;4859977;28;21012;-87
2021/07/07 11:14:28;;;;;;;3.53;1.50;;;23.80;99.90;;;;;;4851828;28;20022;-86
2021/07/07 11:17:01;;;;;;;4.72;1.50;;;23.70;99.80;;;;;;5005750;28;20112;-90
2021/07/07 11:19:44;;;;;;;5.38;1.58;;;23.60;99.90;;;;;;5009164;28;20036;-88
2021/07/07 11:22:11;;;;;;;2.97;1.17;;;23.70;99.90;;;;;;4993685;28;20030;-87
2021/07/07 11:24:42;;;;;;;5.35;1.30;;;23.70;99.90;;;;;;5011605;28;20030;-89
2021/07/07 11:27:07;;;;;;;3.35;1.27;;;24.00;99.90;;;;;;5005766;28;20800;-89
2021/07/07 11:29:33;;;;;;;5.30;1.40;;;24.20;99.90;;;;;;4994467;28;20030;-87
2021/07/07 11:32:24;;;;;;;4.93;1.30;;;24.30;99.90;;;;;;4993216;28;20088;-87
2021/07/07 11:34:53;;;;;;;3.47;1.40;;;24.40;99.90;;;;;;4994243;28;20172;-87
2021/07/07 11:37:23;;;;;;;3.97;1.30;;;24.40;99.90;;;;;;4993921;28;20046;-88
2021/07/07 11:40:11;;;;;;;2.53;1.38;;;24.40;99.80;;;;;;5010853;28;20076;-89
2021/07/07 11:43:03;;;;;;;3.10;1.35;;;24.40;99.60;;;;;;5011267;28;20022;-89
2021/07/07 11:45:35;;;;;;;2.92;1.10;;;24.60;99.40;;;;;;4993590;28;20040;-89
2021/07/07 11:48:09;;;;;;;2.60;1.05;;;24.90;99.00;;;;;;4993581;28;20125;-87
2021/07/07 11:50:34;;;;;;;3.83;1.40;;;25.20;98.60;;;;;;5009089;28;20120;-90
2021/07/07 11:53:05;;;;;;;3.22;1.35;;;25.20;98.20;;;;;;5013417;28;20106;-91
2021/07/07 11:55:51;;;;;;;4.35;1.35;;;25.30;98.20;;;;;;4977346;28;20038;-91
2021/07/07 11:58:31;;;;;;;4.45;1.60;;;25.60;97.90;;;;;;4994712;28;20029;-87
2021/07/07 12:01:13;;;;;;;3.75;1.10;;;26.40;97.50;;;;;;4993422;28;20018;-94
2021/07/07 12:03:39;;;;;;;3.65;1.00;;;26.80;97.00;;;;;;4993638;28;20029;-92
2021/07/07 12:06:10;;;;;;;2.50;0.80;;;26.80;96.00;;;;;;4992522;28;20045;-89
2021/07/07 12:08:45;;;;;;;3.72;1.10;;;26.80;95.70;;;;;;4997577;28;20124;-88
2021/07/07 12:11:13;;;;;;;1.88;0.80;;;26.80;95.80;;;;;;5006439;28;20022;-88
2021/07/07 12:13:41;;;;;;;3.10;1.20;;;26.60;96.30;;;;;;4990645;28;20036;-86
2021/07/07 12:16:40;;;;;;;2.97;1.00;;;26.60;96.30;;;;;;5008010;28;20026;-88
2021/07/07 12:19:13;;;;;;;2.75;0.95;;;26.80;96.30;;;;;;4994439;28;20073;-91
2021/07/07 12:21:51;;;;;;;2.70;0.90;;;27.50;96.10;;;;;;4979917;28;20030;-91
2021/07/07 12:24:22;;;;;;;2.20;0.60;;;28.40;95.20;;;;;;5016399;28;20432;-87
2021/07/07 12:26:54;;;;;;;3.10;1.00;;;29.00;95.00;;;;;;4997887;28;20042;-88
2021/07/07 12:29:27;;;;;;;3.95;0.95;;;29.50;94.10;;;;;;4999003;28;20392;-86
2021/07/07 12:31:57;;;;;;;3.03;0.98;;;29.60;92.70;;;;;;5000811;28;20157;-85
2021/07/07 12:34:30;;;;;;;3.92;1.17;;;29.60;93.00;;;;;;5007551;28;20375;-85
2021/07/07 12:36:57;;;;;;;;;;;29.80;92.10;;;;;;5025243;28;20025;-87
2021/07/07 12:39:26;;;;;;;2.22;0.90;;;29.30;91.80;;;;;;5009245;28;19914;-91
2021/07/07 12:41:56;;;;;;;2.35;0.90;;;29.00;92.20;;;;;;4997094;28;20112;-90
2021/07/07 12:44:26;;;;;;;2.13;1.00;;;28.60;92.00;;;;;;5014578;28;20096;-88
2021/07/07 12:46:56;;;;;;;2.03;0.77;;;28.40;92.40;;;;;;4997113;28;20121;-86
2021/07/07 12:49:45;;;;;;;1.80;0.70;;;28.50;92.60;;;;;;5011010;28;20022;-87
2021/07/07 12:52:15;;;;;;;3.42;1.23;;;28.60;92.90;;;;;;5013217;28;20032;-89